Time;durP1;ratioP1;P1;durP2;ratioP2;P2;SDS_P1;SDS_P2;PMS_P1;PMS_P2;Temp;Humidity;BMP_temperature;BMP_pressure;BME280_temperature;BME280_humidity;BME280_pressure;Samples;Min_cycle;Max_cycle;Signal;HPM_P1;HPM_P2
2022/07/04 00:02:05;;;;;;;;;;;;;;;;;;4937870;29;19914;-88
2022/07/04 00:04:30;;;;;;;;;;;;;;;;;;4937370;29;19911;-88
2022/07/04 00:06:56;;;;;;;;;;;;;;;;;;4936252;29;20375;-89
2022/07/04 00:09:21;;;;;;;;;;;;;;;;;;4937077;29;19918;-89
2022/07/04 00:11:49;;;;;;;;;;;;;;;;;;4937423;29;20418;-89
2022/07/04 00:14:14;;;;;;;;;;;;;;;;;;4936458;29;19915;-89
2022/07/04 00:16:40;;;;;;;;;;;;;;;;;;4935913;29;20358;-89
2022/07/04 00:19:05;;;;;;;;;;;;;;;;;;4936055;29;20400;-89
2022/07/04 00:21:33;;;;;;;;;;;;;;;;;;4936022;29;19954;-90
2022/07/04 00:23:59;;;;;;;;;;;;;;;;;;4936193;29;19958;-88
2022/07/04 00:26:24;;;;;;;;;;;;;;;;;;4936725;29;20444;-88
2022/07/04 00:28:50;;;;;;;;;;;;;;;;;;4936791;29;19915;-89
2022/07/04 00:31:15;;;;;;;;;;;;;;;;;;4919618;29;19915;-88
2022/07/04 00:33:41;;;;;;;;;;;;;;;;;;4935607;29;20422;-88
2022/07/04 00:36:07;;;;;;;;;;;;;;;;;;4920165;29;19966;-89
2022/07/04 00:38:32;;;;;;;;;;;;;;;;;;4935886;29;19940;-90
2022/07/04 00:40:57;;;;;;;;;;;;;;;;;;4935243;29;19915;-89
2022/07/04 00:43:23;;;;;;;;;;;;;;;;;;4937105;29;20268;-89
2022/07/04 00:45:48;;;;;;;;;;;;;;;;;;4936383;29;19915;-89
2022/07/04 00:48:15;;;;;;;;;;;;;;;;;;4935921;29;19915;-87
2022/07/04 00:50:41;;;;;;;;;;;;;;;;;;4920378;29;19919;-89
2022/07/04 00:53:06;;;;;;;;;;;;;;;;;;4936335;29;19970;-89
2022/07/04 00:55:32;;;;;;;;;;;;;;;;;;4936554;29;19911;-90
2022/07/04 00:57:57;;;;;;;;;;;;;;;;;;4935346;29;19915;-89
2022/07/04 01:00:22;;;;;;;;;;;;;;;;;;4919672;29;19918;-89
2022/07/04 01:02:48;;;;;;;;;;;;;;;;;;4935913;29;19950;-88
2022/07/04 01:05:16;;;;;;;;;;;;;;;;;;4934945;29;20438;-89
2022/07/04 01:07:42;;;;;;;;;;;;;;;;;;4918883;29;20358;-89
2022/07/04 01:10:10;;;;;;;;;;;;;;;;;;4934624;29;19915;-90
2022/07/04 01:12:36;;;;;;;;;;;;;;;;;;4936042;29;19922;-88
2022/07/04 01:15:01;;;;;;;;;;;;;;;;;;4919713;29;19914;-90
2022/07/04 01:17:27;;;;;;;;;;;;;;;;;;4919291;29;20346;-90
2022/07/04 01:19:52;;;;;;;;;;;;;;;;;;4934970;29;19919;-89
2022/07/04 01:22:19;;;;;;;;;;;;;;;;;;4935225;29;19918;-89
2022/07/04 01:24:44;;;;;;;;;;;;;;;;;;4935291;29;19941;-89
2022/07/04 01:27:10;;;;;;;;;;;;;;;;;;4918454;29;20027;-89
2022/07/04 01:29:35;;;;;;;;;;;;;;;;;;4934907;29;19918;-88
2022/07/04 01:32:01;;;;;;;;;;;;;;;;;;4934808;29;19968;-88
2022/07/04 01:34:26;;;;;;;;;;;;;;;;;;4935276;29;20401;-88
2022/07/04 01:36:51;;;;;;;;;;;;;;;;;;4934500;29;20341;-89
2022/07/04 01:39:17;;;;;;;;;;;;;;;;;;4918842;29;19925;-88
2022/07/04 01:41:42;;;;;;;;;;;;;;;;;;4935197;29;19915;-89
2022/07/04 01:44:07;;;;;;;;;;;;;;;;;;4920167;29;19915;-88
2022/07/04 01:46:33;;;;;;;;;;;;;;;;;;4936526;29;19922;-90
2022/07/04 01:48:58;;;;;;;;;;;;;;;;;;4937517;29;19954;-89
2022/07/04 01:51:24;;;;;;;;;;;;;;;;;;4921274;29;20040;-91
2022/07/04 01:53:49;;;;;;;;;;;;;;;;;;4938028;29;19922;-92
2022/07/04 01:56:14;;;;;;;;;;;;;;;;;;4920131;29;19915;-91
2022/07/04 01:58:40;;;;;;;;;;;;;;;;;;4918556;29;19925;-89
2022/07/04 02:03:49;;;;;;;;;;;;;;;;;;4918876;29;19919;-89
2022/07/04 02:06:15;;;;;;;;;;;;;;;;;;4935847;29;20035;-89
2022/07/04 02:11:24;;;;;;;;;;;;;;;;;;4950963;29;19942;-88
2022/07/04 02:13:50;;;;;;;;;;;;;;;;;;4956631;29;19982;-88
2022/07/04 02:16:15;;;;;;;;;;;;;;;;;;4945122;29;19915;-88
2022/07/04 02:18:41;;;;;;;;;;;;;;;;;;4940415;29;19919;-90
2022/07/04 02:21:06;;;;;;;;;;;;;;;;;;4919935;29;19914;-88
2022/07/04 02:23:31;;;;;;;;;;;;;;;;;;4935013;29;19966;-89
2022/07/04 02:25:57;;;;;;;;;;;;;;;;;;4934813;29;19966;-90
2022/07/04 02:28:22;;;;;;;;;;;;;;;;;;4919222;29;19915;-90
2022/07/04 02:30:48;;;;;;;;;;;;;;;;;;4934901;29;19922;-89
2022/07/04 02:33:13;;;;;;;;;;;;;;;;;;4934837;29;19922;-89
2022/07/04 02:35:38;;;;;;;;;;;;;;;;;;4934702;29;20290;-89
2022/07/04 02:38:04;;;;;;;;;;;;;;;;;;4936289;29;19978;-90
2022/07/04 02:40:29;;;;;;;;;;;;;;;;;;4938180;29;19957;-90
2022/07/04 02:42:54;;;;;;;;;;;;;;;;;;4922407;29;19914;-90
2022/07/04 02:45:20;;;;;;;;;;;;;;;;;;4938887;29;20005;-90
2022/07/04 02:47:45;;;;;;;;;;;;;;;;;;4938831;29;19930;-90
2022/07/04 02:50:10;;;;;;;;;;;;;;;;;;4938404;29;19918;-89
2022/07/04 02:52:36;;;;;;;;;;;;;;;;;;4937806;29;19915;-89
2022/07/04 02:55:01;;;;;;;;;;;;;;;;;;4937677;29;19922;-89
2022/07/04 02:57:27;;;;;;;;;;;;;;;;;;4938323;29;19962;-90
2022/07/04 02:59:52;;;;;;;;;;;;;;;;;;4922096;29;19918;-90
2022/07/04 03:02:17;;;;;;;;;;;;;;;;;;4922267;29;20385;-88
2022/07/04 03:04:43;;;;;;;;;;;;;;;;;;4937825;29;20027;-89
2022/07/04 03:07:09;;;;;;;;;;;;;;;;;;4937817;29;19974;-90
2022/07/04 03:09:34;;;;;;;;;;;;;;;;;;4938967;29;19922;-88
2022/07/04 03:11:59;;;;;;;;;;;;;;;;;;4921872;29;19919;-88
2022/07/04 03:14:25;;;;;;;;;;;;;;;;;;4938226;29;20511;-90
2022/07/04 03:16:50;;;;;;;;;;;;;;;;;;4923139;29;20319;-90
2022/07/04 03:19:17;;;;;;;;;;;;;;;;;;4945178;29;19926;-88
2022/07/04 03:21:42;;;;;;;;;;;;;;;;;;4931255;29;19926;-89
2022/07/04 03:24:09;;;;;;;;;;;;;;;;;;4940611;29;19924;-90
2022/07/04 03:26:36;;;;;;;;;;;;;;;;;;4944020;29;19907;-90
2022/07/04 03:29:02;;;;;;;;;;;;;;;;;;4945156;29;19929;-88
2022/07/04 03:31:27;;;;;;;;;;;;;;;;;;4960721;29;19946;-89
2022/07/04 03:33:53;;;;;;;;;;;;;;;;;;4937785;29;19906;-88
2022/07/04 03:36:18;;;;;;;;;;;;;;;;;;4936329;29;19915;-87
2022/07/04 03:38:44;;;;;;;;;;;;;;;;;;4943548;29;19930;-89
2022/07/04 03:41:09;;;;;;;;;;;;;;;;;;4943256;29;20021;-89
2022/07/04 03:43:34;;;;;;;;;;;;;;;;;;4931619;29;20390;-88
2022/07/04 03:46:00;;;;;;;;;;;;;;;;;;4926193;29;19919;-87
2022/07/04 03:48:25;;;;;;;;;;;;;;;;;;4929350;29;19914;-88
2022/07/04 03:50:50;;;;;;;;;;;;;;;;;;4932139;29;19930;-89
2022/07/04 03:55:53;;;;;;;;;;;;;;;;;;4977364;28;19926;-88
2022/07/04 03:58:19;;;;;;;;;;;;;;;;;;4946899;28;19911;-86
2022/07/04 04:00:45;;;;;;;;;;;;;;;;;;4946865;28;20313;-86
2022/07/04 04:05:55;;;;;;;;;;;;;;;;;;4959161;29;19921;-89
2022/07/04 04:08:20;;;;;;;;;;;;;;;;;;4930312;29;19918;-88
2022/07/04 04:10:46;;;;;;;;;;;;;;;;;;4944312;29;19919;-89
2022/07/04 04:13:12;;;;;;;;;;;;;;;;;;4928349;29;19981;-88
2022/07/04 04:15:41;;;;;;;;;;;;;;;;;;4947752;29;20286;-89
2022/07/04 04:18:28;;;;;;;;;;;;;;;;;;4946716;28;19930;-90
2022/07/04 04:20:57;;;;;;;;;;;;;;;;;;4943970;29;19914;-89
2022/07/04 04:23:39;;;;;;;;;;;;;;;;;;4960059;28;19914;-90
2022/07/04 04:26:08;;;;;;;;;;;;;;;;;;4925663;29;20298;-87
2022/07/04 04:28:37;;;;;;;;;;;;;;;;;;4925367;29;20005;-86
2022/07/04 04:31:02;;;;;;;;;;;;;;;;;;4957907;28;19958;-88
2022/07/04 04:33:28;;;;;;;;;;;;;;;;;;4939371;28;19919;-87
2022/07/04 04:35:56;;;;;;;;;;;;;;;;;;4944705;29;19977;-87
2022/07/04 04:38:24;;;;;;;;;;;;;;;;;;4939653;29;19915;-87
2022/07/04 04:40:50;;;;;;;;;;;;;;;;;;4959575;29;20275;-87
2022/07/04 04:43:15;;;;;;;;;;;;;;;;;;4965125;28;20301;-88
2022/07/04 04:45:41;;;;;;;;;;;;;;;;;;4943809;28;19941;-88
2022/07/04 04:48:07;;;;;;;;;;;;;;;;;;4941028;29;19974;-87
2022/07/04 04:50:33;;;;;;;;;;;;;;;;;;4925113;29;19914;-86
2022/07/04 04:53:15;;;;;;;;;;;;;;;;;;4943056;29;20325;-88
2022/07/04 04:55:41;;;;;;;;;;;;;;;;;;4929099;29;19922;-89
2022/07/04 04:58:09;;;;;;;;;;;;;;;;;;4945232;28;19922;-88
2022/07/04 05:00:35;;;;;;;;;;;;;;;;;;4944529;29;19923;-86
2022/07/04 05:03:03;;;;;;;;;;;;;;;;;;4960273;28;20021;-88
2022/07/04 05:05:28;;;;;;;;;;;;;;;;;;4944062;29;19910;-88
2022/07/04 05:07:55;;;;;;;;;;;;;;;;;;4945002;29;20141;-89
2022/07/04 05:10:21;;;;;;;;;;;;;;;;;;4945642;29;19918;-87
2022/07/04 05:12:47;;;;;;;;;;;;;;;;;;4931756;28;19999;-87
2022/07/04 05:15:19;;;;;;;;;;;;;;;;;;4961490;28;20378;-88
2022/07/04 05:17:47;;;;;;;;;;;;;;;;;;4942568;29;19914;-89
2022/07/04 05:20:22;;;;;;;;;;;;;;;;;;4962057;28;19925;-89
2022/07/04 05:22:48;;;;;;;;;;;;;;;;;;4962567;28;19914;-87
2022/07/04 05:25:13;;;;;;;;;;;;;;;;;;4961554;28;19914;-87
2022/07/04 05:27:39;;;;;;;;;;;;;;;;;;4965093;28;19937;-85
2022/07/04 05:30:05;;;;;;;;;;;;;;;;;;4966985;28;19927;-87
2022/07/04 05:32:34;;;;;;;;;;;;;;;;;;4952187;29;19915;-88
2022/07/04 05:35:03;;;;;;;;;;;;;;;;;;4952182;29;19933;-87
2022/07/04 05:37:29;;;;;;;;;;;;;;;;;;4950572;29;19914;-87
2022/07/04 05:39:57;;;;;;;;;;;;;;;;;;4948863;28;20356;-85
2022/07/04 05:42:27;;;;;;;;;;;;;;;;;;4963535;28;19922;-87
2022/07/04 05:44:56;;;;;;;;;;;;;;;;;;4929600;29;19926;-86
2022/07/04 05:47:24;;;;;;;;;;;;;;;;;;4966845;28;19915;-88
2022/07/04 05:49:53;;;;;;;;;;;;;;;;;;4933716;29;19914;-88
2022/07/04 05:52:25;;;;;;;;;;;;;;;;;;4930576;28;19918;-88
2022/07/04 05:55:09;;;;;;;;;;;;;;;;;;5160741;27;19919;-86
2022/07/04 05:57:35;;;;;;;;;;;;;;;;;;5141595;27;19911;-86
2022/07/04 06:00:01;;;;;;;;;;;;;;;;;;5144153;27;19976;-89
2022/07/04 06:02:31;;;;;;;;;;;;;;;;;;5159141;27;19911;-88
2022/07/04 06:05:01;;;;;;;;;;;;;;;;;;5139685;27;19916;-86
2022/07/04 06:07:30;;;;;;;;;;;;;;;;;;5158570;27;19911;-87
2022/07/04 06:10:01;;;;;;;;;;;;;;;;;;5138668;27;20013;-88
2022/07/04 06:12:26;;;;;;;;;;;;;;;;;;5118845;27;20357;-87
2022/07/04 06:14:52;;;;;;;;;;;;;;;;;;5119648;27;20104;-86
2022/07/04 06:17:18;;;;;;;;;;;;;;;;;;5137703;27;19921;-87
2022/07/04 06:19:44;;;;;;;;;;;;;;;;;;5153839;27;20296;-86
2022/07/04 06:22:13;;;;;;;;;;;;;;;;;;5134927;27;19912;-87
2022/07/04 06:24:38;;;;;;;;;;;;;;;;;;5154271;27;19920;-87
2022/07/04 06:27:10;;;;;;;;;;;;;;;;;;5153311;27;20433;-86
2022/07/04 06:29:41;;;;;;;;;;;;;;;;;;5157337;27;19912;-85
2022/07/04 06:32:08;;;;;;;;;;;;;;;;;;5155465;27;19938;-86
2022/07/04 06:37:20;;;;;;;;;;;;;;;;;;5136867;27;19911;-87
2022/07/04 06:39:48;;;;;;;;;;;;;;;;;;5153828;27;19919;-86
2022/07/04 06:42:14;;;;;;;;;;;;;;;;;;5151863;27;19914;-87
2022/07/04 06:44:43;;;;;;;;;;;;;;;;;;5151863;27;19911;-87
2022/07/04 06:47:09;;;;;;;;;;;;;;;;;;5150538;27;19915;-86
2022/07/04 06:49:37;;;;;;;;;;;;;;;;;;5134262;27;19911;-87
2022/07/04 06:52:06;;;;;;;;;;;;;;;;;;5151214;27;19915;-86
2022/07/04 06:54:32;;;;;;;;;;;;;;;;;;5151829;27;20399;-86
2022/07/04 06:56:57;;;;;;;;;;;;;;;;;;5152013;27;20306;-87
2022/07/04 06:59:27;;;;;;;;;;;;;;;;;;5135332;27;19927;-86
2022/07/04 07:02:14;;;;;;;;;;;;;;;;;;5133153;27;20326;-89
2022/07/04 07:04:41;;;;;;;;;;;;;;;;;;5137325;27;20004;-90
2022/07/04 07:07:24;;;;;;;;;;;;;;;;;;5115032;27;20435;-88
2022/07/04 07:09:59;;;;;;;;;;;;;;;;;;5147749;27;19922;-89
2022/07/04 07:12:32;;;;;;;;;;;;;;;;;;5128353;27;19911;-89
2022/07/04 07:15:08;;;;;;;;;;;;;;;;;;;;;
2022/07/04 07:18:18;;;;;;;;;;;;;;;;;;5152316;27;19922;-90
2022/07/04 07:21:04;;;;;;;;;;;;;;;;;;5120405;27;19911;-90
2022/07/04 07:23:53;;;;;;;;;;;;;;;;;;5150191;27;19912;-90
2022/07/04 07:26:21;;;;;;;;;;;;;;;;;;5131304;27;19911;-89
2022/07/04 07:28:49;;;;;;;;;;;;;;;;;;5153557;27;19912;-90
2022/07/04 07:31:36;;;;;;;;;;;;;;;;;;5149680;27;19944;-90
2022/07/04 07:34:18;;;;;;;;;;;;;;;;;;5147327;27;19922;-89
2022/07/04 07:36:51;;;;;;;;;;;;;;;;;;5149766;27;20002;-90
2022/07/04 07:39:20;;;;;;;;;;;;;;;;;;5132920;27;20367;-90
2022/07/04 07:42:00;;;;;;;;;;;;;;;;;;5148864;27;19953;-90
2022/07/04 07:44:29;;;;;;;;;;;;;;;;;;5145732;27;19915;-89
2022/07/04 07:46:58;;;;;;;;;;;;;;;;;;5147027;27;19917;-88
2022/07/04 07:49:35;;;;;;;;;;;;;;;;;;5115110;27;19907;-89
2022/07/04 07:52:06;;;;;;;;;;;;;;;;;;5146149;27;19918;-91
2022/07/04 07:54:53;;;;;;;;;;;;;;;;;;5142994;27;19916;-90
2022/07/04 07:57:23;;;;;;;;;;;;;;;;;;5145884;27;19911;-88
2022/07/04 08:00:12;;;;;;;;;;;;;;;;;;5144870;27;19911;-88
2022/07/04 08:05:41;;;;;;;;;;;;;;;;;;5126834;27;19974;-88
2022/07/04 08:08:33;;;;;;;;;;;;;;;;;;5130758;27;19908;-89
2022/07/04 08:11:02;;;;;;;;;;;;;;;;;;5147618;27;19923;-90
2022/07/04 08:13:49;;;;;;;;;;;;;;;;;;5130120;27;19915;-89
2022/07/04 08:16:19;;;;;;;;;;;;;;;;;;5146158;27;19912;-89
2022/07/04 08:18:47;;;;;;;;;;;;;;;;;;5133284;27;19948;-90
2022/07/04 08:21:21;;;;;;;;;;;;;;;;;;5151356;27;19925;-90
2022/07/04 08:23:50;;;;;;;;;;;;;;;;;;5129496;27;19911;-90
2022/07/04 08:26:34;;;;;;;;;;;;;;;;;;5121108;27;19922;-90
2022/07/04 08:29:08;;;;;;;;;;;;;;;;;;5153476;27;19911;-84
2022/07/04 08:31:34;;;;;;;;;;;;;;;;;;5141693;27;19918;-85
2022/07/04 08:34:00;;;;;;;;;;;;;;;;;;5143608;27;19943;-85
2022/07/04 08:36:31;;;;;;;;;;;;;;;;;;5148584;27;19908;-86
2022/07/04 08:38:57;;;;;;;;;;;;;;;;;;5131886;27;19911;-86
2022/07/04 08:41:39;;;;;;;;;;;;;;;;;;5157176;27;19915;-87
2022/07/04 08:44:05;;;;;;;;;;;;;;;;;;5156061;27;19919;-86
2022/07/04 08:46:30;;;;;;;;;;;;;;;;;;5132382;27;19911;-83
2022/07/04 08:48:56;;;;;;;;;;;;;;;;;;5144440;27;19911;-85
2022/07/04 08:51:27;;;;;;;;;;;;;;;;;;5141535;27;19919;-86
2022/07/04 08:53:56;;;;;;;;;;;;;;;;;;5120837;27;19985;-85
2022/07/04 08:59:06;;;;;;;;;;;;;;;;;;5134995;27;19918;-86
2022/07/04 09:01:34;;;;;;;;;;;;;;;;;;5118886;27;19908;-86
2022/07/04 09:04:03;;;;;;;;;;;;;;;;;;5105382;27;19942;-86
2022/07/04 09:06:29;;;;;;;;;;;;;;;;;;5123821;27;20180;-91
2022/07/04 09:09:01;;;;;;;;;;;;;;;;;;5149341;27;19932;-88
2022/07/04 09:11:37;;;;;;;;;;;;;;;;;;5132936;27;19954;-88
2022/07/04 09:14:12;;;;;;;;;;;;;;;;;;5147333;27;19920;-88
2022/07/04 09:16:38;;;;;;;;;;;;;;;;;;5123088;27;19911;-84
2022/07/04 09:19:04;;;;;;;;;;;;;;;;;;5137774;27;19917;-86
2022/07/04 09:21:56;;;;;;;;;;;;;;;;;;5113684;27;19960;-87
2022/07/04 09:24:33;;;;;;;;;;;;;;;;;;5124846;27;19965;-86
2022/07/04 09:27:02;;;;;;;;;;;;;;;;;;5130309;27;20153;-88
2022/07/04 09:29:38;;;;;;;;;;;;;;;;;;5143452;27;19912;-89
2022/07/04 09:32:04;;;;;;;;;;;;;;;;;;5140560;27;19912;-88
2022/07/04 09:34:30;;;;;;;;;;;;;;;;;;5137995;27;19945;-88
2022/07/04 09:36:58;;;;;;;;;;;;;;;;;;5138530;27;19958;-87
2022/07/04 09:39:26;;;;;;;;;;;;;;;;;;5122247;27;19907;-86
2022/07/04 09:41:58;;;;;;;;;;;;;;;;;;5104505;28;19993;-88
2022/07/04 09:44:24;;;;;;;;;;;;;;;;;;5144700;27;19911;-89
2022/07/04 09:46:51;;;;;;;;;;;;;;;;;;5135564;27;19934;-87
2022/07/04 09:49:20;;;;;;;;;;;;;;;;;;5102814;28;19911;-86
2022/07/04 09:51:48;;;;;;;;;;;;;;;;;;5136177;27;19956;-84
2022/07/04 09:54:14;;;;;;;;;;;;;;;;;;5115882;27;20359;-84
2022/07/04 09:56:43;;;;;;;;;;;;;;;;;;5051398;22;19931;-85
2022/07/04 09:59:15;;;;;;;;;;;;;;;;;;5019622;28;20291;-85
2022/07/04 10:01:40;;;;;;;;;;;;;;;;;;5018054;28;19913;-86
2022/07/04 10:04:09;;;;;;;;;;;;;;;;;;5051455;28;19942;-85
2022/07/04 10:06:34;;;;;;;;;;;;;;;;;;5051084;28;19919;-86
2022/07/04 10:08:59;;;;;;;;;;;;;;;;;;5034198;28;20022;-86
2022/07/04 10:29:17;;;;;;;;;;;;;;;;;;5051813;28;19948;-85
2022/07/04 10:35:10;;;;;;;;;;;;;;;;;;5154747;22;19936;-86
2022/07/04 10:37:36;;;;;;;;;;;;;;;;;;5052578;28;19913;-87
2022/07/04 10:40:02;;;;;;;;;;;;;;;;;;5035178;28;20003;-87
2022/07/04 10:42:29;;;;;;;;;;;;;;;;;;5056195;28;19948;-87
2022/07/04 10:44:57;;;;;;;;;;;;;;;;;;5058356;28;20176;-87
2022/07/04 10:47:32;;;;;;;;;;;;;;;;;;5042117;28;19912;-83
2022/07/04 10:49:58;;;;;;;;;;;;;;;;;;5074355;28;19919;-84
2022/07/04 10:55:06;;;;;;;;;;;;;;;;;;5438080;22;19926;-84
2022/07/04 10:57:33;;;;;;;;;;;;;;;;;;5013520;28;20387;-85
2022/07/04 10:59:59;;;;;;;;;;;;;;;;;;5015411;28;19914;-85
2022/07/04 11:02:25;;;;;;;;;;;;;;;;;;5014198;28;19944;-86
2022/07/04 11:04:50;;;;;;;;;;;;;;;;;;4997949;28;19959;-86
2022/07/04 11:07:19;;;;;;;;;;;;;;;;;;5015828;28;20390;-85
2022/07/04 11:09:44;;;;;;;;;;;;;;;;;;4982076;28;20375;-84
2022/07/04 11:12:10;;;;;;;;;;;;;;;;;;4997543;28;19909;-86
2022/07/04 11:14:36;;;;;;;;;;;;;;;;;;4997204;28;20303;-88
2022/07/04 11:17:01;;;;;;;;;;;;;;;;;;4982036;28;19918;-85
2022/07/04 11:19:29;;;;;;;;;;;;;;;;;;4998500;28;20012;-84
2022/07/04 11:21:55;;;;;;;;;;;;;;;;;;4981997;28;19917;-86
2022/07/04 11:24:20;;;;;;;;;;;;;;;;;;4998165;28;20055;-84
2022/07/04 11:26:45;;;;;;;;;;;;;;;;;;4998121;28;19914;-84
2022/07/04 11:29:11;;;;;;;;;;;;;;;;;;4985485;28;19914;-87
2022/07/04 11:31:36;;;;;;;;;;;;;;;;;;5004137;28;20391;-86
2022/07/04 11:34:02;;;;;;;;;;;;;;;;;;4998482;28;19960;-86
2022/07/04 11:36:33;;;;;;;;;;;;;;;;;;5014985;28;20059;-86
2022/07/04 11:38:59;;;;;;;;;;;;;;;;;;4997442;28;19925;-85
2022/07/04 11:46:53;;;;;;;;;;;;;;;;;;5015371;28;19960;-85
2022/07/04 11:49:18;;;;;;;;;;;;;;;;;;4998364;28;19913;-86
2022/07/04 11:51:44;;;;;;;;;;;;;;;;;;4982140;28;19913;-83
2022/07/04 11:54:33;;;;;;;;;;;;;;;;;;4986270;28;19924;-85
2022/07/04 11:57:01;;;;;;;;;;;;;;;;;;4981015;28;19914;-84
2022/07/04 11:59:28;;;;;;;;;;;;;;;;;;4997240;28;19956;-84
2022/07/04 12:02:06;;;;;;;;;;;;;;;;;;5013467;28;20368;-84
2022/07/04 12:04:31;;;;;;;;;;;;;;;;;;4980722;28;19913;-85
2022/07/04 12:06:56;;;;;;;;;;;;;;;;;;4996769;28;19933;-85
2022/07/04 12:09:25;;;;;;;;;;;;;;;;;;5013441;28;19921;-85
2022/07/04 12:11:50;;;;;;;;;;;;;;;;;;4980345;28;19968;-85
2022/07/04 12:14:15;;;;;;;;;;;;;;;;;;5014793;28;19964;-83
2022/07/04 12:16:41;;;;;;;;;;;;;;;;;;5013533;28;19948;-85
2022/07/04 12:19:06;;;;;;;;;;;;;;;;;;4996814;28;19917;-85
2022/07/04 12:21:41;;;;;;;;;;;;;;;;;;4998326;28;19914;-86
2022/07/04 12:24:06;;;;;;;;;;;;;;;;;;4980388;28;19945;-84
2022/07/04 12:26:41;;;;;;;;;;;;;;;;;;4980728;28;20363;-84
2022/07/04 12:29:09;;;;;;;;;;;;;;;;;;4996851;28;19914;-85
2022/07/04 12:31:34;;;;;;;;;;;;;;;;;;4996885;28;19993;-85
2022/07/04 12:33:59;;;;;;;;;;;;;;;;;;5014337;28;20016;-85
2022/07/04 12:36:28;;;;;;;;;;;;;;;;;;4996402;28;19924;-86
2022/07/04 12:38:55;;;;;;;;;;;;;;;;;;4996106;28;20305;-86
2022/07/04 12:41:21;;;;;;;;;;;;;;;;;;5011680;28;19914;-84
2022/07/04 12:43:46;;;;;;;;;;;;;;;;;;4994831;28;20482;-85
2022/07/04 12:46:11;;;;;;;;;;;;;;;;;;4995993;28;20056;-84
2022/07/04 12:48:37;;;;;;;;;;;;;;;;;;4995939;28;19918;-85
2022/07/04 12:51:02;;;;;;;;;;;;;;;;;;4995904;28;19914;-85
2022/07/04 12:53:28;;;;;;;;;;;;;;;;;;4995804;28;19960;-86
2022/07/04 12:55:53;;;;;;;;;;;;;;;;;;5013303;28;19928;-84
2022/07/04 12:58:18;;;;;;;;;;;;;;;;;;5011819;28;19916;-85
2022/07/04 13:00:47;;;;;;;;;;;;;;;;;;4995679;28;20375;-86
2022/07/04 13:03:12;;;;;;;;;;;;;;;;;;5012565;28;20008;-86
2022/07/04 13:05:37;;;;;;;;;;;;;;;;;;4995355;28;19913;-85
2022/07/04 13:08:03;;;;;;;;;;;;;;;;;;5011908;28;19916;-86
2022/07/04 13:10:28;;;;;;;;;;;;;;;;;;4994839;28;19913;-85
2022/07/04 13:12:54;;;;;;;;;;;;;;;;;;4995177;28;19920;-85
2022/07/04 13:15:19;;;;;;;;;;;;;;;;;;4979005;28;20338;-85
2022/07/04 13:17:45;;;;;;;;;;;;;;;;;;4995425;28;19913;-84
2022/07/04 13:20:11;;;;;;;;;;;;;;;;;;4994981;28;20000;-83
2022/07/04 13:22:38;;;;;;;;;;;;;;;;;;4994960;28;19922;-82
2022/07/04 13:25:03;;;;;;;;;;;;;;;;;;4995129;28;19936;-83
2022/07/04 13:27:28;;;;;;;;;;;;;;;;;;4995305;28;19914;-85
2022/07/04 13:29:54;;;;;;;;;;;;;;;;;;5012694;28;20000;-82
2022/07/04 13:32:19;;;;;;;;;;;;;;;;;;4995183;28;20375;-82
2022/07/04 13:34:45;;;;;;;;;;;;;;;;;;4978585;28;19924;-83
2022/07/04 13:37:10;;;;;;;;;;;;;;;;;;5011401;28;20320;-83
2022/07/04 13:39:35;;;;;;;;;;;;;;;;;;4995132;28;20388;-83
2022/07/04 13:42:01;;;;;;;;;;;;;;;;;;5012353;28;19983;-83
2022/07/04 13:44:27;;;;;;;;;;;;;;;;;;5011532;28;19997;-83
2022/07/04 13:46:52;;;;;;;;;;;;;;;;;;4995124;28;19914;-83
2022/07/04 13:49:17;;;;;;;;;;;;;;;;;;4995188;28;20001;-82
2022/07/04 13:51:43;;;;;;;;;;;;;;;;;;4978757;28;19964;-84
2022/07/04 13:54:08;;;;;;;;;;;;;;;;;;5012402;28;19917;-83
2022/07/04 13:56:34;;;;;;;;;;;;;;;;;;4994876;28;19975;-83
2022/07/04 13:59:00;;;;;;;;;;;;;;;;;;5012477;28;19914;-83
2022/07/04 14:01:25;;;;;;;;;;;;;;;;;;5013253;28;19989;-83
2022/07/04 14:03:50;;;;;;;;;;;;;;;;;;4994724;28;20280;-83
2022/07/04 14:06:16;;;;;;;;;;;;;;;;;;4979056;28;19914;-84
2022/07/04 14:08:41;;;;;;;;;;;;;;;;;;4995154;28;19921;-83
2022/07/04 14:11:06;;;;;;;;;;;;;;;;;;5012795;28;20296;-83
2022/07/04 14:13:32;;;;;;;;;;;;;;;;;;4994938;28;19918;-82
2022/07/04 14:15:57;;;;;;;;;;;;;;;;;;5014500;28;20005;-83
2022/07/04 14:18:23;;;;;;;;;;;;;;;;;;5016754;28;19936;-83
2022/07/04 14:20:50;;;;;;;;;;;;;;;;;;4998702;28;19918;-84
2022/07/04 14:23:39;;;;;;;;;;;;;;;;;;5015176;28;19928;-85
2022/07/04 14:26:00;;;;;;;;;;;;;;;;;;4998753;28;19959;-83
2022/07/04 14:28:26;;;;;;;;;;;;;;;;;;5016675;28;19909;-84
2022/07/04 14:30:51;;;;;;;;;;;;;;;;;;4982313;28;20004;-84
2022/07/04 14:33:27;;;;;;;;;;;;;;;;;;4983601;28;19924;-84
2022/07/04 14:35:52;;;;;;;;;;;;;;;;;;5014824;28;19913;-82
2022/07/04 14:38:18;;;;;;;;;;;;;;;;;;5016376;28;20437;-86
2022/07/04 14:40:46;;;;;;;;;;;;;;;;;;4997714;28;19910;-85
2022/07/04 14:43:11;;;;;;;;;;;;;;;;;;4998839;28;20015;-85
2022/07/04 14:45:36;;;;;;;;;;;;;;;;;;4998195;28;20605;-85
2022/07/04 14:48:02;;;;;;;;;;;;;;;;;;5015641;28;19917;-85
2022/07/04 14:50:27;;;;;;;;;;;;;;;;;;5015730;28;19917;-85
2022/07/04 14:52:52;;;;;;;;;;;;;;;;;;5015770;28;19920;-82
2022/07/04 14:55:18;;;;;;;;;;;;;;;;;;4983101;28;19917;-83
2022/07/04 14:57:43;;;;;;;;;;;;;;;;;;5016770;28;19914;-83
2022/07/04 15:00:09;;;;;;;;;;;;;;;;;;5016917;28;19921;-83
2022/07/04 15:02:34;;;;;;;;;;;;;;;;;;5016603;28;20380;-84
2022/07/04 15:04:59;;;;;;;;;;;;;;;;;;4999269;28;19918;-83
2022/07/04 15:07:25;;;;;;;;;;;;;;;;;;5017078;28;20315;-83
2022/07/04 15:10:00;;;;;;;;;;;;;;;;;;4983293;28;19910;-81
2022/07/04 15:12:25;;;;;;;;;;;;;;;;;;4999043;28;19921;-84
2022/07/04 15:14:50;;;;;;;;;;;;;;;;;;4997994;28;20283;-85
2022/07/04 15:17:16;;;;;;;;;;;;;;;;;;5013877;28;19920;-83
2022/07/04 15:25:10;;;;;;;;;;;;;;;;;;4997434;28;19933;-84
2022/07/04 15:27:38;;;;;;;;;;;;;;;;;;4981973;28;19916;-83
2022/07/04 15:30:04;;;;;;;;;;;;;;;;;;4982817;28;19914;-85
2022/07/04 15:32:29;;;;;;;;;;;;;;;;;;5014441;28;20265;-83
2022/07/04 15:34:55;;;;;;;;;;;;;;;;;;5014478;28;20004;-86
2022/07/04 15:37:37;;;;;;;;;;;;;;;;;;4997080;28;19913;-86
2022/07/04 15:40:02;;;;;;;;;;;;;;;;;;4997450;28;19940;-84
2022/07/04 15:42:27;;;;;;;;;;;;;;;;;;4981631;28;19946;-85
2022/07/04 15:44:54;;;;;;;;;;;;;;;;;;5014769;28;20340;-84
2022/07/04 15:47:19;;;;;;;;;;;;;;;;;;4997061;28;19914;-83
2022/07/04 15:49:44;;;;;;;;;;;;;;;;;;5014250;28;19918;-84
2022/07/04 15:52:10;;;;;;;;;;;;;;;;;;5016179;28;19921;-84
2022/07/04 15:54:35;;;;;;;;;;;;;;;;;;5007228;23;19929;-86
2022/07/04 15:57:01;;;;;;;;;;;;;;;;;;4993049;28;19918;-85
2022/07/04 15:59:26;;;;;;;;;;;;;;;;;;4995210;28;20000;-85
2022/07/04 16:01:52;;;;;;;;;;;;;;;;;;4993583;28;20376;-89
2022/07/04 16:04:17;;;;;;;;;;;;;;;;;;4961380;28;19914;-88
2022/07/04 16:06:43;;;;;;;;;;;;;;;;;;4993986;28;19913;-88
2022/07/04 16:09:11;;;;;;;;;;;;;;;;;;4961157;28;20495;-89
2022/07/04 16:11:41;;;;;;;;;;;;;;;;;;4961219;28;19914;-89
2022/07/04 16:14:06;;;;;;;;;;;;;;;;;;4994804;28;19926;-88
2022/07/04 16:16:37;;;;;;;;;;;;;;;;;;4979340;28;19921;-89
2022/07/04 16:19:04;;;;;;;;;;;;;;;;;;4978726;28;19922;-89
2022/07/04 16:21:29;;;;;;;;;;;;;;;;;;4979600;28;19918;-89
2022/07/04 16:23:57;;;;;;;;;;;;;;;;;;4997141;28;19936;-91
2022/07/04 16:26:23;;;;;;;;;;;;;;;;;;4996554;28;19926;-90
2022/07/04 16:28:48;;;;;;;;;;;;;;;;;;4997768;28;19948;-89
2022/07/04 16:31:14;;;;;;;;;;;;;;;;;;4980012;28;19939;-90
2022/07/04 16:33:39;;;;;;;;;;;;;;;;;;4998029;28;20296;-89
2022/07/04 16:36:04;;;;;;;;;;;;;;;;;;5002613;28;20038;-89
2022/07/04 16:38:30;;;;;;;;;;;;;;;;;;5010138;28;19921;-89
2022/07/04 16:40:55;;;;;;;;;;;;;;;;;;4987288;28;20389;-89
2022/07/04 16:43:21;;;;;;;;;;;;;;;;;;5002161;28;19913;-89
2022/07/04 16:45:46;;;;;;;;;;;;;;;;;;4977588;28;20419;-89
2022/07/04 16:48:11;;;;;;;;;;;;;;;;;;4992886;28;19914;-89
2022/07/04 16:50:39;;;;;;;;;;;;;;;;;;4976228;28;20388;-89
2022/07/04 16:53:04;;;;;;;;;;;;;;;;;;4978606;28;19914;-89
2022/07/04 16:55:29;;;;;;;;;;;;;;;;;;5001365;28;20448;-89
2022/07/04 16:57:56;;;;;;;;;;;;;;;;;;4966781;28;19937;-88
2022/07/04 17:00:21;;;;;;;;;;;;;;;;;;5002938;28;19914;-88
2022/07/04 17:02:46;;;;;;;;;;;;;;;;;;4982603;28;20407;-86
2022/07/04 17:05:12;;;;;;;;;;;;;;;;;;4978746;28;19914;-89
2022/07/04 17:07:37;;;;;;;;;;;;;;;;;;4962710;28;19921;-89
2022/07/04 17:10:02;;;;;;;;;;;;;;;;;;4981206;28;19914;-87
2022/07/04 17:12:29;;;;;;;;;;;;;;;;;;4997965;28;19933;-87
2022/07/04 17:14:55;;;;;;;;;;;;;;;;;;4981344;28;19925;-88
2022/07/04 17:17:20;;;;;;;;;;;;;;;;;;4996619;28;19914;-88
2022/07/04 17:19:45;;;;;;;;;;;;;;;;;;5011518;28;19914;-87
2022/07/04 17:22:11;;;;;;;;;;;;;;;;;;4978543;28;19920;-89
2022/07/04 17:24:36;;;;;;;;;;;;;;;;;;4976323;28;20012;-90
2022/07/04 17:27:02;;;;;;;;;;;;;;;;;;4994202;28;19968;-89
2022/07/04 17:29:27;;;;;;;;;;;;;;;;;;4976115;28;19914;-89
2022/07/04 17:31:53;;;;;;;;;;;;;;;;;;4961082;28;20028;-90
2022/07/04 17:34:18;;;;;;;;;;;;;;;;;;4978180;28;20554;-89
2022/07/04 17:36:44;;;;;;;;;;;;;;;;;;4968721;28;19976;-88
2022/07/04 17:39:09;;;;;;;;;;;;;;;;;;4989927;28;19918;-89
2022/07/04 17:41:42;;;;;;;;;;;;;;;;;;4997967;28;19937;-89
2022/07/04 17:44:08;;;;;;;;;;;;;;;;;;4997048;28;19914;-87